createdAt,value
2022-10-09T00:04:26.008Z,10.00
2022-10-09T00:09:27.719Z,10.00
2022-10-09T00:14:29.616Z,10.10
2022-10-09T00:19:31.912Z,10.10
2022-10-09T00:24:33.684Z,10.00
2022-10-09T00:29:35.534Z,9.90
2022-10-09T00:34:37.276Z,9.80
2022-10-09T00:39:39.056Z,9.70
2022-10-09T00:44:57.087Z,9.70
2022-10-09T00:50:18.973Z,9.80
2022-10-09T00:55:22.273Z,9.80
2022-10-09T01:00:24.183Z,9.80
2022-10-09T01:05:46.006Z,9.80
2022-10-09T01:10:59.916Z,9.70
2022-10-09T01:16:36.989Z,9.60
2022-10-09T01:21:46.483Z,9.60
2022-10-09T01:27:04.053Z,9.50
2022-10-09T01:32:07.582Z,9.40
2022-10-09T01:37:11.663Z,9.50
2022-10-09T01:42:14.931Z,9.60
2022-10-09T01:47:18.936Z,9.70
2022-10-09T01:52:42.007Z,9.70
2022-10-09T01:57:51.119Z,9.70
2022-10-09T02:02:55.111Z,9.70
2022-10-09T02:07:58.395Z,9.70
2022-10-09T02:13:00.823Z,9.70
2022-10-09T02:18:11.162Z,9.70
2022-10-09T02:23:15.094Z,9.70
2022-10-09T02:28:16.903Z,9.70
2022-10-09T02:33:18.771Z,9.60
2022-10-09T02:38:20.536Z,9.50
2022-10-09T02:43:22.269Z,9.20
2022-10-09T02:48:24.002Z,9.10
2022-10-09T02:53:25.837Z,9.10
2022-10-09T02:58:29.981Z,9.00
2022-10-09T03:03:32.472Z,9.00
2022-10-09T03:08:34.194Z,9.00
2022-10-09T03:13:36.466Z,9.00
2022-10-09T03:18:38.751Z,9.00
2022-10-09T03:23:41.111Z,9.00
2022-10-09T03:28:47.915Z,9.10
2022-10-09T03:33:49.860Z,9.00
2022-10-09T03:38:51.592Z,9.20
2022-10-09T03:43:53.321Z,9.30
2022-10-09T03:48:55.363Z,9.30
2022-10-09T03:53:57.062Z,9.10
2022-10-09T03:58:58.940Z,9.00
2022-10-09T04:04:02.114Z,9.00
2022-10-09T04:09:03.986Z,8.90
2022-10-09T04:14:05.744Z,8.90
2022-10-09T04:19:07.499Z,8.80
2022-10-09T04:24:09.239Z,8.70
2022-10-09T04:29:12.054Z,8.70
2022-10-09T04:34:13.803Z,8.60
2022-10-09T04:39:16.096Z,8.60
2022-10-09T04:44:17.882Z,8.70
2022-10-09T04:49:19.671Z,8.70
2022-10-09T04:54:21.576Z,8.50
2022-10-09T04:59:23.388Z,8.60
2022-10-09T05:04:25.127Z,8.50
2022-10-09T05:09:26.957Z,8.40
2022-10-09T05:14:28.714Z,8.40
2022-10-09T05:19:30.537Z,8.40
2022-10-09T05:24:32.360Z,8.30
2022-10-09T05:29:34.135Z,8.50
2022-10-09T05:34:35.884Z,8.50
2022-10-09T05:39:38.459Z,8.60
2022-10-09T05:44:40.231Z,8.70
2022-10-09T05:49:42.048Z,8.90
2022-10-09T05:54:43.808Z,9.00
2022-10-09T05:59:45.662Z,9.10
2022-10-09T06:04:47.346Z,9.50
2022-10-09T06:09:49.095Z,10.30
2022-10-09T06:14:50.834Z,10.60
2022-10-09T06:19:52.611Z,11.50
2022-10-09T06:24:54.343Z,15.70
2022-10-09T06:29:56.134Z,19.40
2022-10-09T06:34:57.891Z,21.70
2022-10-09T06:39:59.629Z,23.80
2022-10-09T06:45:01.372Z,24.10
2022-10-09T06:50:03.576Z,25.70
2022-10-09T06:55:05.800Z,26.10
2022-10-09T07:00:08.001Z,25.70
2022-10-09T07:05:09.916Z,25.50
2022-10-09T07:10:11.622Z,27.80
2022-10-09T07:15:13.363Z,27.80
2022-10-09T07:20:15.154Z,27.50
2022-10-09T07:25:17.303Z,26.10
2022-10-09T07:30:19.166Z,21.20
2022-10-09T07:35:20.900Z,20.10
2022-10-09T07:40:22.737Z,23.70
2022-10-09T07:45:24.499Z,25.70
2022-10-09T07:50:26.279Z,25.80
2022-10-09T07:55:28.023Z,26.10
2022-10-09T08:00:29.789Z,27.70
2022-10-09T08:05:31.553Z,28.00
2022-10-09T08:10:33.395Z,28.90
2022-10-09T08:15:44.189Z,28.00
2022-10-09T08:20:55.551Z,24.70
2022-10-09T08:25:58.163Z,24.20
2022-10-09T08:30:59.977Z,21.20
2022-10-09T08:36:07.835Z,18.40
2022-10-09T08:41:28.560Z,17.20
2022-10-09T08:46:42.798Z,20.10
2022-10-09T08:51:46.326Z,20.60
2022-10-09T08:56:49.775Z,20.20
2022-10-09T09:02:23.532Z,19.50
2022-10-09T09:07:51.170Z,23.70
2022-10-09T09:13:06.363Z,21.00
2022-10-09T09:18:37.687Z,20.60
2022-10-09T09:23:46.337Z,20.90
2022-10-09T09:28:53.278Z,23.30
2022-10-09T09:34:22.142Z,24.90
2022-10-09T09:45:14.673Z,25.20
2022-10-09T09:50:42.336Z,24.30
2022-10-09T09:55:38.221Z,24.20
2022-10-09T10:00:40.008Z,24.50
2022-10-09T10:05:43.947Z,22.20
2022-10-09T10:10:48.000Z,20.50
2022-10-09T10:15:56.491Z,18.80
2022-10-09T10:21:03.215Z,17.80
2022-10-09T10:26:26.786Z,17.10
2022-10-09T10:31:54.589Z,16.20
2022-10-09T10:37:17.483Z,16.40
2022-10-09T10:42:26.017Z,16.30
2022-10-09T10:47:34.460Z,16.30
2022-10-09T10:52:50.907Z,16.50
2022-10-09T10:58:32.718Z,16.60
2022-10-09T11:03:43.286Z,16.40
2022-10-09T11:09:11.814Z,16.20
2022-10-09T11:14:32.034Z,15.90
2022-10-09T11:19:45.857Z,15.70
2022-10-09T11:24:59.410Z,15.80
2022-10-09T11:30:13.389Z,16.00
2022-10-09T11:35:18.533Z,15.80
2022-10-09T11:40:24.495Z,16.10
2022-10-09T11:45:36.278Z,15.90
2022-10-09T11:50:47.380Z,15.60
2022-10-09T11:55:49.227Z,15.80
2022-10-09T12:00:56.158Z,15.60
2022-10-09T12:06:11.676Z,15.60
2022-10-09T12:11:19.019Z,15.60
2022-10-09T12:16:37.117Z,15.80
2022-10-09T12:21:46.390Z,15.60
2022-10-09T12:26:50.040Z,15.70
2022-10-09T12:31:55.836Z,15.60
2022-10-09T12:37:13.702Z,15.60
2022-10-09T12:42:25.112Z,15.50
2022-10-09T12:47:29.854Z,15.50
2022-10-09T12:52:32.629Z,15.70
2022-10-09T12:57:34.598Z,15.60
2022-10-09T13:02:36.566Z,15.70
2022-10-09T13:07:39.043Z,15.40
2022-10-09T13:12:40.809Z,15.20
2022-10-09T13:17:42.723Z,15.20
2022-10-09T13:23:02.252Z,15.20
2022-10-09T13:28:05.050Z,15.00
2022-10-09T13:33:14.121Z,14.90
2022-10-09T13:38:17.423Z,14.90
2022-10-09T13:43:23.769Z,14.70
2022-10-09T13:48:25.816Z,14.60
2022-10-09T13:53:27.988Z,14.60
2022-10-09T13:58:29.867Z,14.60
2022-10-09T14:03:31.626Z,14.50
2022-10-09T14:08:33.404Z,14.40
2022-10-09T14:13:35.551Z,14.30
2022-10-09T14:18:37.327Z,14.20
2022-10-09T14:23:39.076Z,14.00
2022-10-09T14:28:41.701Z,13.80
2022-10-09T14:33:44.945Z,13.70
2022-10-09T14:38:48.211Z,13.50
2022-10-09T14:43:56.799Z,13.40
2022-10-09T14:48:59.040Z,13.30
2022-10-09T14:54:00.885Z,13.20
2022-10-09T14:59:05.855Z,13.00
2022-10-09T15:04:07.851Z,12.80
2022-10-09T15:09:09.703Z,12.60
2022-10-09T15:14:11.628Z,12.30
2022-10-09T15:19:13.374Z,12.10
2022-10-09T15:24:15.184Z,11.80
2022-10-09T15:29:16.992Z,11.50
2022-10-09T15:34:19.628Z,11.30
2022-10-09T15:39:21.630Z,11.00
2022-10-09T15:44:23.570Z,10.80
2022-10-09T15:49:25.380Z,10.40
2022-10-09T15:54:27.827Z,10.20
2022-10-09T15:59:30.115Z,9.90
2022-10-09T16:04:32.738Z,9.60
2022-10-09T16:09:37.774Z,9.50
2022-10-09T16:14:40.928Z,9.30
2022-10-09T16:19:42.676Z,9.20
2022-10-09T16:24:44.420Z,9.00
2022-10-09T16:29:46.211Z,9.00
2022-10-09T16:34:50.060Z,9.00
2022-10-09T16:39:51.791Z,8.80
2022-10-09T16:44:53.531Z,8.70
2022-10-09T16:49:55.723Z,8.70
2022-10-09T16:55:00.373Z,8.50
2022-10-09T17:00:03.783Z,8.40
2022-10-09T17:05:07.300Z,8.30
2022-10-09T17:10:09.591Z,8.20
2022-10-09T17:15:12.715Z,8.00
2022-10-09T17:20:14.442Z,7.90
2022-10-09T17:25:16.257Z,7.90
2022-10-09T17:30:18.240Z,7.90
2022-10-09T17:35:19.998Z,7.90
2022-10-09T17:40:21.740Z,7.80
2022-10-09T17:45:23.593Z,7.60
2022-10-09T17:50:25.380Z,7.60
2022-10-09T17:55:28.142Z,7.60
2022-10-09T18:00:29.864Z,7.60
2022-10-09T18:05:31.800Z,7.50
2022-10-09T18:10:33.728Z,7.40
2022-10-09T18:15:43.372Z,7.30
2022-10-09T18:20:45.167Z,7.20
2022-10-09T18:25:46.929Z,7.20
2022-10-09T18:30:48.782Z,7.20
2022-10-09T18:35:51.416Z,7.20
2022-10-09T18:40:53.168Z,7.30
2022-10-09T18:45:55.815Z,7.20
2022-10-09T18:50:58.395Z,7.00
2022-10-09T18:56:00.265Z,6.80
2022-10-09T19:01:05.453Z,6.80
2022-10-09T19:06:09.502Z,6.80
2022-10-09T19:11:14.253Z,6.80
2022-10-09T19:16:16.020Z,7.20
2022-10-09T19:21:17.775Z,7.40
2022-10-09T19:26:20.436Z,7.20
2022-10-09T19:31:22.194Z,7.30
2022-10-09T19:36:23.955Z,7.60
2022-10-09T19:41:25.810Z,7.70
2022-10-09T19:46:28.060Z,7.70
2022-10-09T19:51:29.937Z,7.60
2022-10-09T19:56:33.360Z,7.20
2022-10-09T20:01:37.705Z,6.70
2022-10-09T20:06:41.442Z,6.70
2022-10-09T20:11:43.519Z,6.70
2022-10-09T20:16:45.376Z,6.60
2022-10-09T20:21:47.097Z,6.90
2022-10-09T20:26:48.927Z,6.80
2022-10-09T20:31:50.739Z,7.00
2022-10-09T20:36:53.414Z,7.20
2022-10-09T20:41:55.167Z,7.30
2022-10-09T20:46:57.059Z,7.10
2022-10-09T20:51:58.777Z,7.30
2022-10-09T20:57:00.638Z,7.20
2022-10-09T21:02:02.510Z,7.20
2022-10-09T21:07:04.266Z,7.10
2022-10-09T21:12:06.967Z,7.20
2022-10-09T21:17:08.780Z,7.20
2022-10-09T21:22:10.542Z,7.20
2022-10-09T21:27:12.317Z,7.00
2022-10-09T21:32:14.041Z,6.90
2022-10-09T21:37:21.470Z,6.60
2022-10-09T21:42:23.805Z,6.40
2022-10-09T21:47:25.544Z,6.50
2022-10-09T21:52:27.308Z,6.60
2022-10-09T21:57:28.999Z,6.50
2022-10-09T22:02:30.748Z,6.40
2022-10-09T22:07:33.052Z,6.50
2022-10-09T22:12:34.871Z,6.60
2022-10-09T22:17:36.648Z,6.80
2022-10-09T22:22:38.579Z,6.70
2022-10-09T22:27:40.310Z,6.60
2022-10-09T22:32:42.100Z,6.50
2022-10-09T22:37:43.878Z,6.60
2022-10-09T22:42:45.760Z,6.70
2022-10-09T22:47:47.972Z,6.50
2022-10-09T22:52:50.578Z,6.60
2022-10-09T22:57:52.459Z,6.60
2022-10-09T23:02:54.184Z,6.50
2022-10-09T23:07:55.924Z,6.50
2022-10-09T23:12:57.699Z,6.40
2022-10-09T23:17:59.449Z,6.30
2022-10-09T23:23:01.224Z,6.30
2022-10-09T23:28:02.986Z,6.40
2022-10-09T23:33:04.773Z,6.40
2022-10-09T23:38:06.499Z,6.30
2022-10-09T23:43:08.263Z,6.30
2022-10-09T23:48:10.043Z,6.20
2022-10-09T23:53:11.780Z,6.20
2022-10-09T23:58:18.452Z,6.30
